Time;durP1;ratioP1;P1;durP2;ratioP2;P2;SDS_P1;SDS_P2;PMS_P1;PMS_P2;Temp;Humidity;BMP_temperature;BMP_pressure;BME280_temperature;BME280_humidity;BME280_pressure;Samples;Min_cycle;Max_cycle;Signal;HPM_P1;HPM_P2
2022/12/25 00:01:58;;;;;;;46.20;28.60;;;;;;;3.86;94.85;100540.91;107587;1255;82142;-58
2022/12/25 00:04:37;;;;;;;45.70;28.50;;;;;;;3.85;95.04;100544.42;107549;1254;96980;-57
2022/12/25 00:07:17;;;;;;;46.10;26.70;;;;;;;3.90;95.07;100557.86;107526;1256;89211;-59
2022/12/25 00:09:59;;;;;;;44.80;27.40;;;;;;;3.87;95.12;100563.70;107510;1254;94296;-58
2022/12/25 00:12:39;;;;;;;49.50;28.50;;;;;;;3.89;95.08;100571.48;107491;1254;82247;-60
2022/12/25 00:15:22;;;;;;;42.20;27.60;;;;;;;3.95;94.85;100570.54;107520;1253;82305;-57
2022/12/25 00:18:04;;;;;;;43.10;26.70;;;;;;;3.98;95.05;100580.76;107506;1254;99317;-57
2022/12/25 00:20:41;;;;;;;42.80;25.30;;;;;;;3.98;95.04;100584.65;107503;1254;87681;-57
2022/12/25 00:23:25;;;;;;;41.80;26.70;;;;;;;3.98;94.86;100586.84;107495;1256;94788;-58
2022/12/25 00:26:08;;;;;;;39.90;26.30;;;;;;;3.99;94.99;100589.41;107482;1258;81642;-57
2022/12/25 00:28:53;;;;;;;44.10;27.70;;;;;;;3.99;94.92;100586.20;107500;1253;81011;-58
2022/12/25 00:31:33;;;;;;;42.10;26.80;;;;;;;4.00;94.99;100591.27;107465;1253;99190;-57
2022/12/25 00:34:09;;;;;;;46.80;28.50;;;;;;;3.99;95.00;100591.89;107530;1255;88746;-59
2022/12/25 00:36:45;;;;;;;41.90;27.30;;;;;;;3.96;94.96;100595.94;107582;1253;95041;-57
2022/12/25 00:39:21;;;;;;;40.70;26.20;;;;;;;3.94;94.80;100599.48;107562;1254;81026;-58
2022/12/25 00:44:55;;;;;;;42.20;26.50;;;;;;;3.95;95.08;100603.65;107537;1254;98051;-58
2022/12/25 00:47:37;;;;;;;42.90;26.50;;;;;;;3.99;95.25;100613.12;107476;1254;88901;-59
2022/12/25 00:50:16;;;;;;;42.00;27.00;;;;;;;4.03;95.06;100621.27;107499;1256;94585;-57
2022/12/25 00:52:56;;;;;;;43.70;26.30;;;;;;;4.06;95.03;100629.19;107486;1256;81782;-59
2022/12/25 00:55:41;;;;;;;42.20;26.90;;;;;;;4.07;94.99;100632.87;107486;1257;82119;-60
2022/12/25 00:58:21;;;;;;;41.40;26.30;;;;;;;4.02;94.99;100642.59;107491;1254;98246;-60
2022/12/25 01:00:58;;;;;;;38.40;24.60;;;;;;;4.04;95.19;100647.23;107494;1253;89094;-60
2022/12/25 01:03:36;;;;;;;35.80;23.50;;;;;;;4.05;95.20;100653.02;107474;1254;93372;-59
2022/12/25 01:06:12;;;;;;;38.20;24.10;;;;;;;4.06;95.14;100661.07;107491;1253;80355;-59
2022/12/25 01:11:43;;;;;;;35.60;22.50;;;;;;;4.15;95.20;100660.45;107494;1254;99587;-59
2022/12/25 01:14:25;;;;;;;33.70;21.30;;;;;;;4.19;95.18;100658.98;107494;1254;86919;-58
2022/12/25 01:17:05;;;;;;;34.40;20.00;;;;;;;4.21;95.25;100660.50;107514;1253;95669;-59
2022/12/25 01:19:49;;;;;;;33.50;20.10;;;;;;;4.18;95.23;100659.98;107515;1254;81517;-53
2022/12/25 01:22:27;;;;;;;29.70;18.70;;;;;;;4.18;95.33;100654.25;107547;1252;82948;-56
2022/12/25 01:25:04;;;;;;;30.50;18.10;;;;;;;4.22;95.30;100653.42;107590;1257;98002;-60
2022/12/25 01:27:50;;;;;;;30.40;19.10;;;;;;;4.23;95.35;100649.98;107517;1256;88616;-58
2022/12/25 01:30:30;;;;;;;30.20;18.60;;;;;;;4.28;94.96;100653.56;107499;1254;94248;-58
2022/12/25 01:33:12;;;;;;;28.30;17.50;;;;;;;4.35;95.05;100654.69;107494;1254;81477;-58
2022/12/25 01:35:57;;;;;;;30.30;17.70;;;;;;;4.33;95.12;100648.66;107492;1254;81214;-61
2022/12/25 01:38:37;;;;;;;29.00;17.20;;;;;;;4.34;95.00;100653.86;107504;1254;98283;-60
2022/12/25 01:41:20;;;;;;;28.40;19.00;;;;;;;4.35;95.22;100656.85;107488;1254;88603;-59
2022/12/25 01:44:09;;;;;;;25.90;15.70;;;;;;;4.32;95.16;100655.30;106960;1257;714933;-57
2022/12/25 01:46:48;;;;;;;23.30;14.30;;;;;;;4.35;95.07;100653.25;107475;1254;80778;-57
2022/12/25 01:49:33;;;;;;;24.50;14.70;;;;;;;4.34;95.27;100653.92;107570;1254;80958;-56
2022/12/25 01:52:23;;;;;;;26.70;15.20;;;;;;;4.31;95.27;100665.75;107487;1254;98434;-58
2022/12/25 01:55:04;;;;;;;25.20;15.40;;;;;;;4.30;95.41;100667.23;107423;1254;88625;-59
2022/12/25 01:57:45;;;;;;;25.80;14.90;;;;;;;4.31;95.31;100666.11;107403;1254;95132;-59
2022/12/25 02:00:21;;;;;;;28.20;16.10;;;;;;;4.33;95.30;100659.48;107599;1254;82337;-58
2022/12/25 02:03:02;;;;;;;23.30;14.50;;;;;;;4.37;95.30;100657.66;107564;1254;81955;-57
2022/12/25 02:05:44;;;;;;;24.30;14.80;;;;;;;4.39;95.24;100653.52;107573;1254;97527;-57
2022/12/25 02:08:25;;;;;;;23.40;14.00;;;;;;;4.39;95.35;100648.59;107479;1254;88119;-59
2022/12/25 02:11:55;;;;;;;22.30;13.30;;;;;;;4.41;95.44;100643.04;107591;1254;94814;-57
2022/12/25 02:14:04;;;;;;;24.90;14.00;;;;;;;4.37;95.33;100645.58;107497;1254;81922;-58
2022/12/25 02:16:48;;;;;;;21.40;13.30;;;;;;;4.38;95.15;100648.52;107734;1254;83613;-57
2022/12/25 02:19:50;;;;;;;22.60;13.30;;;;;;;4.43;95.29;100655.64;107581;1254;98668;-56
2022/12/25 02:22:41;;;;;;;20.40;12.80;;;;;;;4.41;95.11;100657.45;107393;1255;89356;-57
2022/12/25 02:25:39;;;;;;;20.80;11.90;;;;;;;4.42;95.06;100657.92;107437;1254;93478;-60
2022/12/25 02:28:21;;;;;;;21.10;13.00;;;;;;;4.41;95.20;100650.52;107377;1254;80958;-60
2022/12/25 02:31:07;;;;;;;21.00;12.20;;;;;;;4.37;95.17;100645.58;107408;1257;82122;-57
2022/12/25 02:34:05;;;;;;;22.20;12.60;;;;;;;4.36;95.34;100637.42;107380;1254;99480;-58
2022/12/25 02:36:46;;;;;;;21.60;12.20;;;;;;;4.44;95.32;100638.48;107368;1254;88360;-50
2022/12/25 03:07:14;;;;;;;20.30;11.80;;;;;;;4.49;95.25;100651.70;107398;1254;88791;-59
2022/12/25 03:13:12;;;;;;;19.20;12.70;;;;;;;4.53;95.54;100650.10;107365;1254;80551;-58
2022/12/25 03:18:48;;;;;;;21.60;12.20;;;;;;;4.52;95.09;100654.47;107395;1255;97251;-51
2022/12/25 03:27:20;;;;;;;24.30;13.40;;;;;;;4.56;95.35;100656.23;107424;1254;82022;-58
2022/12/25 03:33:05;;;;;;;22.00;12.90;;;;;;;4.55;95.22;100654.58;107502;1254;97302;-57
2022/12/25 03:35:48;;;;;;;25.50;13.40;;;;;;;4.55;95.30;100656.66;107451;1254;87235;-56
2022/12/25 04:38:08;;;;;;;28.80;15.80;;;;;;;4.49;95.59;100689.00;107383;1254;94152;-56
2022/12/25 04:40:53;;;;;;;30.20;15.80;;;;;;;4.52;95.75;100691.02;107375;1256;83199;-57
2022/12/25 04:43:31;;;;;;;27.30;15.80;;;;;;;4.53;95.93;100695.20;107448;1257;81872;-57
2022/12/25 04:46:07;;;;;;;31.10;15.60;;;;;;;4.54;95.78;100695.44;107438;1254;96829;-57
2022/12/25 04:48:47;;;;;;;28.20;14.90;;;;;;;4.56;95.84;100701.89;107415;1254;87138;-57
2022/12/25 04:51:30;;;;;;;29.20;15.00;;;;;;;4.57;95.84;100695.52;107400;1254;95232;-56
2022/12/25 04:54:07;;;;;;;30.20;15.80;;;;;;;4.57;96.03;100697.55;107452;1254;81609;-57
2022/12/25 04:56:49;;;;;;;30.90;15.70;;;;;;;4.57;95.93;100695.48;107469;1254;81347;-57
2022/12/25 04:59:26;;;;;;;28.10;15.30;;;;;;;4.59;95.80;100685.48;107422;1254;98966;-58
2022/12/25 05:02:06;;;;;;;26.50;15.30;;;;;;;4.61;95.75;100683.57;107479;1254;87537;-58
2022/12/25 05:04:46;;;;;;;32.60;16.20;;;;;;;4.63;95.65;100691.79;107392;1254;96183;-49
2022/12/25 05:07:25;;;;;;;26.50;14.90;;;;;;;4.64;95.59;100697.06;107384;1254;81151;-56
2022/12/25 05:10:02;;;;;;;30.00;14.90;;;;;;;4.61;95.50;100701.77;107419;1254;82485;-56
2022/12/25 05:12:37;;;;;;;33.80;16.60;;;;;;;4.62;95.71;100701.11;107411;1254;99669;-57
2022/12/25 05:15:13;;;;;;;33.40;17.70;;;;;;;4.60;95.69;100698.25;107412;1254;89204;-58
2022/12/25 05:17:52;;;;;;;31.90;15.50;;;;;;;4.61;95.55;100699.56;107402;1254;94598;-56
2022/12/25 05:20:29;;;;;;;30.90;16.40;;;;;;;4.59;95.65;100703.40;107391;1254;82519;-58
2022/12/25 05:23:11;;;;;;;32.80;16.00;;;;;;;4.59;95.70;100701.05;107423;1254;82347;-57
2022/12/25 05:25:56;;;;;;;31.40;16.10;;;;;;;4.59;95.77;100702.81;107409;1254;99144;-57
2022/12/25 05:28:42;;;;;;;29.30;15.70;;;;;;;4.62;95.91;100709.34;107479;1256;89058;-59
2022/12/25 05:31:29;;;;;;;34.10;17.30;;;;;;;4.66;95.87;100710.38;107475;1254;94776;-60
2022/12/25 05:34:13;;;;;;;31.90;16.50;;;;;;;4.64;95.87;100711.64;107473;1254;82105;-62
2022/12/25 05:36:56;;;;;;;30.40;16.00;;;;;;;4.67;95.82;100715.48;107441;1254;83106;-58
2022/12/25 05:39:37;;;;;;;36.60;17.20;;;;;;;4.67;95.77;100720.61;107502;1254;98562;-58
2022/12/25 05:42:16;;;;;;;36.40;17.10;;;;;;;4.68;96.04;100724.85;107412;1254;89053;-58
2022/12/25 05:44:58;;;;;;;37.30;17.80;;;;;;;4.70;95.96;100728.77;107386;1255;95188;-57
2022/12/25 05:47:45;;;;;;;34.00;16.50;;;;;;;4.69;95.87;100738.65;107361;1254;81926;-58
2022/12/25 05:50:20;;;;;;;;;;;;;;;4.72;95.98;100739.06;107426;1254;83001;-58
2022/12/25 05:53:04;;;;;;;32.50;15.80;;;;;;;4.75;95.82;100736.77;107394;1255;96827;-54
2022/12/25 05:55:45;;;;;;;33.60;18.10;;;;;;;4.77;95.99;100735.95;107381;1254;85979;-58
2022/12/25 05:58:24;;;;;;;32.40;16.90;;;;;;;4.77;95.97;100732.90;107371;1254;94852;-58
2022/12/25 06:01:10;;;;;;;32.20;15.20;;;;;;;4.80;96.06;100735.67;107404;1257;79942;-62
2022/12/25 06:03:52;;;;;;;31.60;16.90;;;;;;;4.79;95.97;100742.88;107328;1254;83423;-59
2022/12/25 06:06:28;;;;;;;30.30;16.40;;;;;;;4.77;96.06;100745.19;105155;1254;3013426;-58
2022/12/25 06:09:12;;;;;;;31.80;15.90;;;;;;;4.79;95.96;100757.54;107378;1256;87986;-58
2022/12/25 06:11:52;;;;;;;29.80;16.50;;;;;;;4.83;96.06;100765.52;107457;1256;95862;-58
2022/12/25 06:14:27;;;;;;;27.80;15.50;;;;;;;4.87;95.83;100764.77;107416;1257;80354;-59
2022/12/25 06:17:07;;;;;;;30.10;16.30;;;;;;;4.89;95.88;100763.94;107430;1256;81271;-59
2022/12/25 06:19:43;;;;;;;28.30;15.20;;;;;;;4.86;95.76;100768.06;107425;1256;99307;-57
2022/12/25 06:22:22;;;;;;;30.00;14.90;;;;;;;4.85;95.81;100779.56;107366;1256;87798;-59
2022/12/25 06:25:02;;;;;;;27.80;15.20;;;;;;;4.87;95.81;100783.18;107365;1257;95047;-59
2022/12/25 06:27:38;;;;;;;32.70;16.20;;;;;;;4.88;95.89;100792.57;107338;1255;80828;-60
2022/12/25 06:30:16;;;;;;;36.50;18.60;;;;;;;4.89;95.82;100792.63;107371;1256;82916;-57
2022/12/25 06:33:01;;;;;;;30.40;15.90;;;;;;;4.92;95.87;100795.20;107413;1258;97660;-58
2022/12/25 06:35:42;;;;;;;34.40;18.40;;;;;;;4.91;95.95;100798.45;107415;1256;87733;-59
2022/12/25 06:38:21;;;;;;;30.80;15.60;;;;;;;4.91;95.89;100805.80;107398;1256;95730;-59
2022/12/25 06:41:07;;;;;;;33.50;17.30;;;;;;;4.95;95.88;100814.00;107403;1256;81679;-59
2022/12/25 06:43:50;;;;;;;36.30;17.80;;;;;;;4.98;95.98;100817.43;107407;1256;82948;-60
2022/12/25 06:46:28;;;;;;;38.70;18.80;;;;;;;4.99;95.83;100818.19;107450;1256;96048;-57
2022/12/25 06:49:10;;;;;;;33.80;17.00;;;;;;;4.97;95.95;100828.04;107420;1256;89167;-54
2022/12/25 06:51:53;;;;;;;40.60;19.50;;;;;;;4.96;96.16;100831.71;107403;1256;93103;-60
2022/12/25 06:54:41;;;;;;;42.90;20.70;;;;;;;4.89;96.12;100834.71;107380;1255;81682;-61
2022/12/25 06:57:20;;;;;;;43.30;20.50;;;;;;;4.92;96.03;100836.02;107414;1256;81366;-55
2022/12/25 07:00:01;;;;;;;45.50;21.50;;;;;;;4.98;96.07;100844.60;107371;1256;97514;-57
2022/12/25 07:02:38;;;;;;;43.50;21.60;;;;;;;5.00;96.08;100849.02;107361;1256;87371;-57
2022/12/25 07:05:14;;;;;;;45.60;21.30;;;;;;;5.03;95.95;100856.22;107354;1258;96038;-59
2022/12/25 07:07:49;;;;;;;42.00;20.30;;;;;;;5.03;96.02;100858.35;107365;1256;80129;-58
2022/12/25 07:10:27;;;;;;;51.50;20.90;;;;;;;5.06;96.05;100865.02;107381;1255;80872;-59
2022/12/25 07:13:07;;;;;;;44.40;21.10;;;;;;;5.05;96.12;100867.51;107379;1256;96833;-58
2022/12/25 07:15:46;;;;;;;40.90;20.10;;;;;;;5.07;96.14;100870.09;107400;1256;88948;-59
2022/12/25 07:18:30;;;;;;;40.40;21.60;;;;;;;5.13;96.03;100874.88;107378;1255;95078;-51
2022/12/25 07:21:14;;;;;;;40.00;21.30;;;;;;;5.13;95.89;100875.27;107366;1256;81122;-59
2022/12/25 07:23:51;;;;;;;39.00;20.70;;;;;;;5.13;96.02;100875.81;107417;1255;83171;-59
2022/12/25 07:26:33;;;;;;;40.40;21.00;;;;;;;5.15;96.01;100882.40;107404;1258;98981;-59
2022/12/25 07:29:17;;;;;;;40.60;21.50;;;;;;;5.19;95.90;100889.04;107292;1256;89283;-60
2022/12/25 07:31:56;;;;;;;41.30;21.70;;;;;;;5.19;95.97;100889.70;107402;1255;95381;-58
2022/12/25 07:34:41;;;;;;;45.30;21.70;;;;;;;5.20;95.63;100888.54;107408;1256;81077;-57
2022/12/25 07:37:17;;;;;;;37.60;18.80;;;;;;;5.20;95.64;100895.84;107437;1256;81205;-59
2022/12/25 07:40:00;;;;;;;39.10;19.60;;;;;;;5.20;95.77;100901.70;107363;1257;98045;-58
2022/12/25 07:42:41;;;;;;;38.90;20.90;;;;;;;5.20;95.72;100901.76;107415;1256;89277;-59
2022/12/25 07:45:20;;;;;;;39.20;19.80;;;;;;;5.19;95.68;100903.29;107327;1257;96123;-57
2022/12/25 07:47:59;;;;;;;35.80;20.40;;;;;;;5.20;95.81;100913.73;107341;1256;81483;-55
2022/12/25 07:50:41;;;;;;;37.30;20.30;;;;;;;5.20;95.83;100922.65;107416;1255;81774;-58
2022/12/25 07:53:19;;;;;;;40.60;21.60;;;;;;;5.20;95.91;100928.71;107399;1256;99151;-58
2022/12/25 07:56:04;;;;;;;39.20;20.00;;;;;;;5.23;95.80;100928.46;107362;1256;86914;-58
2022/12/25 07:58:47;;;;;;;42.10;22.00;;;;;;;5.23;95.85;100934.16;107347;1256;96215;-60
2022/12/25 08:01:28;;;;;;;38.70;20.70;;;;;;;5.26;95.71;100934.55;107346;1256;82638;-60
2022/12/25 08:04:06;;;;;;;40.80;21.00;;;;;;;5.25;95.83;100938.77;107394;1254;81883;-62
2022/12/25 08:06:49;;;;;;;35.80;20.40;;;;;;;5.26;95.86;100940.66;107284;1255;98839;-60
2022/12/25 08:09:31;;;;;;;37.10;20.60;;;;;;;5.29;95.55;100942.52;107402;1255;87695;-60
2022/12/25 08:12:08;;;;;;;38.40;20.40;;;;;;;5.30;95.63;100949.75;107404;1255;93417;-59
2022/12/25 08:14:46;;;;;;;41.80;21.40;;;;;;;5.28;95.79;100948.45;107437;1256;81267;-59
2022/12/25 08:17:26;;;;;;;40.10;20.30;;;;;;;5.31;95.79;100950.40;107405;1256;82354;-57
2022/12/25 08:20:07;;;;;;;41.90;21.70;;;;;;;5.29;95.87;100953.52;107416;1256;98166;-61
2022/12/25 08:22:50;;;;;;;49.60;24.30;;;;;;;5.34;95.84;100957.20;107376;1256;89008;-59
2022/12/25 08:25:29;;;;;;;51.60;25.50;;;;;;;5.35;96.00;100956.75;107342;1258;95356;-58
2022/12/25 08:28:06;;;;;;;47.80;24.30;;;;;;;5.36;96.15;100952.39;107306;1255;82219;-59
2022/12/25 08:30:43;;;;;;;42.40;23.20;;;;;;;5.39;95.90;100958.16;107407;1255;81404;-59
2022/12/25 08:33:19;;;;;;;49.20;24.50;;;;;;;5.39;95.97;100959.63;107380;1256;97564;-58
2022/12/25 08:36:03;;;;;;;49.40;24.10;;;;;;;5.43;95.94;100965.02;107363;1256;88838;-60
2022/12/25 08:38:44;;;;;;;42.50;22.20;;;;;;;5.44;95.83;100969.52;107356;1255;96127;-59
2022/12/25 08:41:21;;;;;;;45.00;23.80;;;;;;;5.46;95.91;100976.16;107354;1256;81378;-58
2022/12/25 08:44:02;;;;;;;38.10;21.50;;;;;;;5.50;96.05;100984.85;107409;1256;82173;-57
2022/12/25 08:46:44;;;;;;;41.00;21.30;;;;;;;5.54;96.09;100989.48;107367;1256;99524;-58
2022/12/25 08:49:22;;;;;;;37.50;20.40;;;;;;;5.59;96.10;100991.51;107411;1255;89363;-58
2022/12/25 08:52:00;;;;;;;39.20;21.30;;;;;;;5.62;95.87;100999.98;107404;1256;94158;-60
2022/12/25 08:54:42;;;;;;;39.50;20.70;;;;;;;5.61;95.95;101000.42;107409;1256;81897;-59
2022/12/25 08:57:21;;;;;;;40.70;21.30;;;;;;;5.56;95.82;101003.94;107432;1256;82732;-58
2022/12/25 09:00:00;;;;;;;41.60;20.90;;;;;;;5.54;95.85;101002.52;107421;1256;96680;-60
2022/12/25 09:02:43;;;;;;;40.20;22.00;;;;;;;5.49;95.82;101006.19;107399;1256;87113;-59
2022/12/25 09:05:28;;;;;;;44.90;23.10;;;;;;;5.48;96.13;101004.52;107358;1256;94589;-58
2022/12/25 09:08:07;;;;;;;42.10;22.00;;;;;;;5.49;96.06;101007.33;107328;1255;82651;-59
2022/12/25 09:10:47;;;;;;;37.70;19.90;;;;;;;5.49;96.01;101008.52;107367;1256;83548;-59
2022/12/25 09:13:27;;;;;;;36.60;20.40;;;;;;;5.51;95.91;101011.77;107344;1256;97579;-59
2022/12/25 09:16:09;;;;;;;38.00;19.70;;;;;;;5.47;96.24;101012.33;107369;1256;89462;-58
2022/12/25 09:18:51;;;;;;;35.90;18.10;;;;;;;5.48;96.19;101015.02;107362;1256;92258;-58
2022/12/25 09:21:28;;;;;;;33.40;19.70;;;;;;;5.50;96.02;101014.31;107363;1256;80725;-57
2022/12/25 09:24:09;;;;;;;37.30;19.60;;;;;;;5.53;95.86;101012.42;107367;1255;81832;-59
2022/12/25 09:26:51;;;;;;;34.70;19.40;;;;;;;5.53;96.04;101015.42;107399;1256;98863;-58
2022/12/25 09:29:37;;;;;;;38.40;19.50;;;;;;;5.55;95.85;101013.63;107362;1256;87790;-57
2022/12/25 09:32:24;;;;;;;31.40;17.80;;;;;;;5.62;95.96;101016.55;107390;1255;94333;-58
2022/12/25 09:35:03;;;;;;;35.30;18.20;;;;;;;5.67;95.60;101023.27;107366;1254;81047;-60
2022/12/25 09:37:40;;;;;;;34.20;18.10;;;;;;;5.77;95.57;101021.42;107439;1255;82529;-59
2022/12/25 09:40:21;;;;;;;38.10;20.10;;;;;;;5.84;95.47;101015.95;107432;1255;98790;-59
2022/12/25 09:42:57;;;;;;;36.90;20.50;;;;;;;5.85;95.61;101004.20;107417;1255;88198;-59
2022/12/25 09:45:37;;;;;;;34.00;19.40;;;;;;;5.87;95.72;101002.95;107036;1256;500548;-51
2022/12/25 09:48:17;;;;;;;35.20;20.20;;;;;;;5.88;95.53;101003.55;107386;1256;82280;-60
2022/12/25 09:50:58;;;;;;;33.00;19.40;;;;;;;5.92;95.37;101006.08;107378;1256;80398;-60
2022/12/25 09:53:41;;;;;;;36.70;19.80;;;;;;;5.99;95.50;101007.77;107334;1257;96780;-59
2022/12/25 09:56:25;;;;;;;37.10;21.10;;;;;;;6.05;95.15;101011.32;107406;1255;89161;-58
2022/12/25 09:59:02;;;;;;;37.30;21.90;;;;;;;6.07;95.08;101011.59;107398;1255;95891;-59
2022/12/25 10:01:57;;;;;;;36.40;20.40;;;;;;;6.10;95.20;101010.07;107374;1256;82459;-55
2022/12/25 10:05:06;;;;;;;36.60;20.40;;;;;;;6.17;95.19;101005.23;107377;1258;80107;-61
2022/12/25 10:07:50;;;;;;;33.90;19.90;;;;;;;6.21;95.28;101001.66;107401;1256;98470;-58
2022/12/25 10:10:44;;;;;;;32.60;19.20;;;;;;;6.22;95.25;101000.30;107377;1256;86839;-58
2022/12/25 10:13:49;;;;;;;35.10;20.40;;;;;;;6.27;95.35;101000.38;107369;1256;95591;-60
2022/12/25 10:16:35;;;;;;;33.10;19.90;;;;;;;6.28;95.29;101000.32;107347;1256;81704;-59
2022/12/25 10:19:33;;;;;;;37.20;20.80;;;;;;;6.30;95.47;101003.13;107413;1258;81225;-57
2022/12/25 10:22:21;;;;;;;37.20;20.70;;;;;;;6.32;95.28;101009.73;107318;1255;100826;-59
2022/12/25 10:25:05;;;;;;;34.30;20.30;;;;;;;6.33;95.11;101012.15;107423;1256;86497;-60
2022/12/25 10:27:53;;;;;;;30.20;17.70;;;;;;;6.40;94.82;101017.50;107410;1256;92688;-60
2022/12/25 10:30:41;;;;;;;29.10;17.60;;;;;;;6.38;94.59;101017.57;107416;1256;82207;-58
2022/12/25 10:33:22;;;;;;;28.60;17.70;;;;;;;6.38;94.62;101015.02;107411;1255;82669;-59
2022/12/25 10:35:59;;;;;;;32.50;18.00;;;;;;;6.34;94.86;101013.52;107413;1256;96515;-58
2022/12/25 10:38:37;;;;;;;26.10;15.60;;;;;;;6.35;94.83;101015.91;107390;1256;89359;-58
2022/12/25 10:41:30;;;;;;;26.00;15.50;;;;;;;6.31;94.70;101010.90;107386;1256;95531;-54
2022/12/25 10:44:19;;;;;;;22.90;14.60;;;;;;;6.29;94.59;101012.02;107341;1256;79175;-65
2022/12/25 10:47:04;;;;;;;24.30;15.40;;;;;;;6.22;94.62;101021.40;107364;1255;82096;-61
2022/12/25 10:49:42;;;;;;;24.30;14.70;;;;;;;6.23;94.53;101023.49;107361;1254;98117;-59
2022/12/25 10:52:29;;;;;;;23.10;14.00;;;;;;;6.20;94.77;101025.54;107268;1256;89516;-56
2022/12/25 10:55:19;;;;;;;22.80;13.70;;;;;;;6.22;94.75;101027.89;107356;1256;95662;-55
2022/12/25 10:58:08;;;;;;;22.40;14.10;;;;;;;6.22;94.44;101030.59;107339;1255;81663;-58
2022/12/25 11:00:54;;;;;;;25.10;14.10;;;;;;;6.25;94.32;101024.36;107444;1256;81550;-61
2022/12/25 11:03:33;;;;;;;22.40;13.00;;;;;;;6.25;94.29;101019.73;107392;1254;97868;-58
2022/12/25 11:06:21;;;;;;;20.80;12.90;;;;;;;6.23;94.31;101018.64;107407;1256;88103;-55
2022/12/25 11:09:00;;;;;;;55.60;28.40;;;;;;;6.36;95.76;101013.80;107383;1254;94311;-59
2022/12/25 11:11:41;;;;;;;36.30;19.70;;;;;;;7.25;99.26;101006.20;107493;1257;82382;-60
2022/12/25 11:14:26;;;;;;;25.80;14.50;;;;;;;7.23;96.15;101007.52;107423;1258;81291;-64
2022/12/25 11:17:18;;;;;;;21.90;13.40;;;;;;;7.06;94.79;101005.13;107426;1254;98431;-58
2022/12/25 11:19:59;;;;;;;20.00;12.40;;;;;;;6.88;94.16;101004.40;107488;1254;86686;-60
2022/12/25 11:22:46;;;;;;;23.40;12.90;;;;;;;6.78;94.06;101007.73;107460;1254;94030;-59
2022/12/25 11:25:27;;;;;;;19.20;12.40;;;;;;;6.72;93.81;101004.77;107462;1254;79798;-58
2022/12/25 11:28:12;;;;;;;21.00;13.80;;;;;;;6.64;93.78;101001.77;107460;1256;82654;-59
2022/12/25 11:30:56;;;;;;;24.60;14.20;;;;;;;6.65;93.73;100999.95;107470;1254;97895;-60
2022/12/25 11:33:37;;;;;;;22.80;14.10;;;;;;;6.59;93.53;101000.33;107449;1254;89468;-58
2022/12/25 11:36:23;;;;;;;25.10;14.40;;;;;;;6.54;93.44;100998.25;107477;1254;95642;-59
2022/12/25 11:39:12;;;;;;;23.60;14.40;;;;;;;6.52;93.60;100997.18;107435;1256;81187;-60
2022/12/25 11:41:48;;;;;;;25.60;16.00;;;;;;;6.48;93.55;100996.50;107524;1254;83036;-62
2022/12/25 11:44:41;;;;;;;25.20;14.50;;;;;;;6.44;93.69;100997.76;107523;1254;96259;-61
2022/12/25 11:47:25;;;;;;;27.00;15.00;;;;;;;6.36;93.72;100998.08;107529;1254;86120;-59
2022/12/25 11:50:12;;;;;;;26.30;15.20;;;;;;;6.31;93.35;101000.20;107482;1254;94201;-61
2022/12/25 11:52:53;;;;;;;24.70;14.60;;;;;;;6.25;93.26;101002.86;107538;1255;81610;-58
2022/12/25 11:55:38;;;;;;;25.30;14.90;;;;;;;6.21;93.31;101004.52;107398;1253;81988;-60
2022/12/25 11:58:27;;;;;;;27.40;15.60;;;;;;;6.20;92.98;101014.09;107406;1254;98303;-62
2022/12/25 12:01:07;;;;;;;27.70;16.40;;;;;;;6.24;93.01;101014.82;107430;1254;87274;-66
2022/12/25 12:03:49;;;;;;;28.40;16.10;;;;;;;6.26;93.28;101016.79;107441;1254;92226;-64
2022/12/25 12:06:41;;;;;;;48.00;27.50;;;;;;;6.30;93.58;101012.66;107463;1255;82480;-65
2022/12/25 12:09:34;;;;;;;50.10;32.90;;;;;;;6.32;93.32;101015.95;107534;1254;80712;-60
2022/12/25 12:12:19;;;;;;;41.70;27.10;;;;;;;6.31;93.41;101020.05;107426;1254;97771;-63
2022/12/25 12:15:08;;;;;;;35.60;21.00;;;;;;;6.28;93.38;101023.52;107360;1254;89947;-57
2022/12/25 12:17:46;;;;;;;32.50;19.20;;;;;;;6.27;93.23;101022.35;107399;1254;93283;-57
2022/12/25 12:20:34;;;;;;;29.90;19.40;;;;;;;6.29;93.33;101023.46;107423;1254;81384;-59
2022/12/25 12:23:17;;;;;;;34.20;19.80;;;;;;;6.27;93.24;101023.81;107439;1256;82153;-58
2022/12/25 12:25:53;;;;;;;30.90;17.90;;;;;;;6.29;93.14;101030.55;107433;1256;99073;-63
2022/12/25 12:28:43;;;;;;;32.10;18.00;;;;;;;6.31;93.14;101032.94;107421;1254;87681;-64
2022/12/25 12:31:24;;;;;;;31.70;18.30;;;;;;;6.29;93.23;101032.73;107482;1257;95398;-65
2022/12/25 12:34:07;;;;;;;32.50;18.60;;;;;;;6.26;93.31;101040.36;107435;1254;80267;-62
2022/12/25 12:36:45;;;;;;;31.30;18.70;;;;;;;6.30;93.09;101041.57;107470;1254;82758;-60
2022/12/25 12:39:32;;;;;;;33.00;18.40;;;;;;;6.27;93.21;101034.75;107431;1256;97989;-60
2022/12/25 12:42:20;;;;;;;32.00;17.90;;;;;;;6.20;92.92;101030.79;107360;1256;86720;-60
2022/12/25 12:45:17;;;;;;;33.30;19.30;;;;;;;6.19;92.80;101024.21;107422;1256;92767;-57
2022/12/25 12:48:00;;;;;;;31.50;19.70;;;;;;;6.23;92.71;101017.23;107423;1256;80170;-59
2022/12/25 12:50:43;;;;;;;33.80;18.60;;;;;;;6.24;92.48;101017.16;107474;1257;82589;-58
2022/12/25 12:53:32;;;;;;;35.90;20.40;;;;;;;6.19;92.67;101013.30;107428;1254;98510;-58
2022/12/25 12:56:26;;;;;;;40.10;24.70;;;;;;;6.17;92.93;101016.52;107468;1258;87086;-57
2022/12/25 12:59:01;;;;;;;35.80;20.50;;;;;;;6.15;92.94;101018.72;107451;1254;94123;-58
2022/12/25 13:01:56;;;;;;;33.40;19.70;;;;;;;6.16;92.95;101022.23;107396;1256;80110;-59
2022/12/25 13:05:03;;;;;;;31.80;19.40;;;;;;;6.15;92.88;101016.95;107453;1255;81621;-61
2022/12/25 13:08:03;;;;;;;33.40;18.20;;;;;;;6.20;92.92;101012.66;107417;1254;99598;-60
2022/12/25 13:13:49;;;;;;;36.30;21.70;;;;;;;6.21;92.65;101004.20;103944;1298;600384;-60
2022/12/25 13:16:30;;;;;;;33.60;21.30;;;;;;;6.20;92.65;101003.42;106738;1269;82814;-62
2022/12/25 13:19:13;;;;;;;33.00;19.60;;;;;;;6.22;92.78;101005.70;106805;1269;81491;-60
2022/12/25 13:22:02;;;;;;;31.10;19.00;;;;;;;6.21;92.74;101010.79;106796;1264;96974;-59
2022/12/25 13:24:57;;;;;;;43.70;26.50;;;;;;;6.17;92.62;101021.77;106821;1264;88032;-61
2022/12/25 13:27:40;;;;;;;31.20;18.90;;;;;;;6.14;92.76;101035.96;106746;1257;481035;-58
2022/12/25 13:30:24;;;;;;;30.30;17.20;;;;;;;6.10;92.67;101035.14;107148;1257;81288;-61
2022/12/25 13:33:12;;;;;;;31.90;18.00;;;;;;;6.08;92.92;101043.70;107205;1258;80651;-62
2022/12/25 13:35:52;;;;;;;29.70;16.90;;;;;;;5.99;92.86;101037.75;107227;1258;97091;-61
2022/12/25 13:38:33;;;;;;;27.40;16.00;;;;;;;6.01;92.97;101040.09;107464;1254;88511;-60
2022/12/25 13:44:15;;;;;;;32.10;16.40;;;;;;;6.03;93.10;101039.73;107465;1258;80873;-60
2022/12/25 13:46:52;;;;;;;29.60;16.60;;;;;;;6.00;93.18;101040.41;107346;1255;82794;-61
2022/12/25 13:49:38;;;;;;;27.80;15.70;;;;;;;5.96;92.87;101042.20;107424;1256;97506;-60
2022/12/25 13:52:20;;;;;;;28.70;16.40;;;;;;;5.95;93.08;101045.43;107323;1255;87746;-62
2022/12/25 13:55:04;;;;;;;28.80;16.30;;;;;;;5.99;93.15;101048.15;107437;1260;94540;-63
2022/12/25 13:57:52;;;;;;;30.50;16.90;;;;;;;6.00;93.25;101050.61;107462;1260;81155;-61
2022/12/25 14:00:34;;;;;;;29.60;16.30;;;;;;;5.98;93.28;101054.19;107511;1257;81757;-61
2022/12/25 14:03:30;;;;;;;28.50;16.30;;;;;;;5.92;93.10;101059.14;107451;1254;97741;-63
2022/12/25 14:06:22;;;;;;;29.50;15.80;;;;;;;5.86;93.08;101056.31;107436;1259;89597;-60
2022/12/25 14:09:01;;;;;;;28.40;16.50;;;;;;;5.84;93.22;101058.61;107501;1260;93975;-58
2022/12/25 14:11:41;;;;;;;27.40;15.90;;;;;;;5.86;93.35;101060.80;107493;1259;80576;-61
2022/12/25 14:14:24;;;;;;;29.20;16.00;;;;;;;5.85;93.13;101064.13;107460;1260;82778;-58